createdAt,value
2019-04-29T00:05:02.572Z,100608.34
2019-04-29T00:07:30.415Z,100608.34
2019-04-29T00:09:58.064Z,100607.69
2019-04-29T00:15:18.583Z,100616.41
2019-04-29T00:18:05.287Z,100616.08
2019-04-29T00:20:51.799Z,100613.59
2019-04-29T00:25:53.992Z,100612.72
2019-04-29T00:28:21.753Z,100619.41
2019-04-29T00:30:49.485Z,100618.20
2019-04-29T00:33:35.941Z,100618.20
2019-04-29T00:36:03.773Z,100617.03
2019-04-29T00:38:50.233Z,100617.48
2019-04-29T00:41:36.687Z,100622.45
2019-04-29T00:47:13.646Z,100623.05
2019-04-29T00:52:14.770Z,100623.76
2019-04-29T00:55:01.192Z,100623.76
2019-04-29T00:57:47.640Z,100627.59
2019-04-29T01:03:26.076Z,100629.89
2019-04-29T01:05:56.079Z,100630.91
2019-04-29T01:08:42.507Z,100630.91
2019-04-29T01:11:10.159Z,100631.80
2019-04-29T01:13:56.861Z,100627.84
2019-04-29T01:16:24.503Z,100629.64
2019-04-29T01:18:52.048Z,100627.15
2019-04-29T01:21:19.750Z,100638.59
2019-04-29T01:23:47.694Z,100642.09
2019-04-29T01:26:34.123Z,100642.09
2019-04-29T01:34:29.837Z,100642.69
2019-04-29T01:36:57.640Z,100637.08
2019-04-29T01:42:22.205Z,100634.98
2019-04-29T01:45:08.577Z,100630.74
2019-04-29T01:50:29.109Z,100631.62
2019-04-29T01:53:18.547Z,100632.27
2019-04-29T01:55:46.276Z,100632.45
2019-04-29T01:58:13.951Z,100632.66
2019-04-29T02:01:01.026Z,100635.39
2019-04-29T02:03:28.834Z,100640.99
2019-04-29T02:06:15.283Z,100638.55
2019-04-29T02:08:43.469Z,100638.55
2019-04-29T02:11:11.133Z,100646.16
2019-04-29T02:13:57.580Z,100649.38
2019-04-29T02:16:25.339Z,100654.30
2019-04-29T02:18:52.997Z,100649.17
2019-04-29T02:21:39.418Z,100643.17
2019-04-29T02:24:26.081Z,100643.17
2019-04-29T02:27:12.519Z,100651.65
2019-04-29T02:29:58.870Z,100650.47
2019-04-29T02:32:26.949Z,100650.47
2019-04-29T02:34:54.508Z,100655.92
2019-04-29T02:37:40.893Z,100656.94
2019-04-29T02:40:27.277Z,100655.28
2019-04-29T02:45:42.737Z,100651.13
2019-04-29T02:48:10.360Z,100651.13
2019-04-29T02:50:56.730Z,100648.05
2019-04-29T02:53:43.129Z,100648.84
2019-04-29T02:56:10.686Z,100648.84
2019-04-29T02:58:57.128Z,100652.65
2019-04-29T03:01:45.900Z,100652.07
2019-04-29T03:06:58.130Z,100646.75
2019-04-29T03:09:44.894Z,100653.73
2019-04-29T03:12:12.510Z,100651.89
2019-04-29T03:14:58.936Z,100652.18
2019-04-29T03:17:26.568Z,100652.18
2019-04-29T03:20:13.286Z,100654.28
2019-04-29T03:25:29.286Z,100654.88
2019-04-29T03:27:57.124Z,100654.88
2019-04-29T03:30:24.846Z,100654.83
2019-04-29T03:32:52.352Z,100653.52
2019-04-29T03:35:20.145Z,100653.52
2019-04-29T03:38:06.477Z,100649.89
2019-04-29T03:40:34.188Z,100655.78
2019-04-29T03:43:01.883Z,100651.84
2019-04-29T03:45:48.454Z,100658.47
2019-04-29T03:48:16.236Z,100653.73
2019-04-29T03:50:44.002Z,100653.87
2019-04-29T03:53:11.764Z,100653.87
2019-04-29T03:55:58.168Z,100657.13
2019-04-29T03:58:44.608Z,100662.09
2019-04-29T04:01:31.031Z,100664.98
2019-04-29T04:04:17.440Z,100670.87
2019-04-29T04:07:04.322Z,100670.87
2019-04-29T04:12:07.709Z,100670.31
2019-04-29T04:14:35.300Z,100670.31
2019-04-29T04:17:23.310Z,100674.39
2019-04-29T04:19:51.335Z,100674.39
2019-04-29T04:22:37.775Z,100674.39
2019-04-29T04:25:05.717Z,100674.39
2019-04-29T04:27:33.201Z,100679.22
2019-04-29T04:30:19.974Z,100679.22
2019-04-29T04:32:47.670Z,100683.99
2019-04-29T04:35:15.523Z,100682.67
2019-04-29T04:38:01.938Z,100691.88
2019-04-29T04:40:48.292Z,100694.52
2019-04-29T04:43:15.854Z,100691.41
2019-04-29T04:45:43.435Z,100691.41
2019-04-29T04:48:12.734Z,100692.28
2019-04-29T04:50:59.076Z,100690.56
2019-04-29T04:53:45.489Z,100695.35
2019-04-29T04:56:13.209Z,100686.05
2019-04-29T04:58:59.612Z,100685.05
2019-04-29T05:01:27.168Z,100685.05
2019-04-29T05:03:54.764Z,100695.83
2019-04-29T05:06:41.038Z,100699.12
2019-04-29T05:09:08.598Z,100702.00
2019-04-29T05:11:55.359Z,100707.69
2019-04-29T05:14:41.653Z,100709.56
2019-04-29T05:17:28.085Z,100713.62
2019-04-29T05:19:55.660Z,100715.84
2019-04-29T05:22:23.498Z,100715.84
2019-04-29T05:24:51.181Z,100719.05
2019-04-29T05:27:21.975Z,100715.80
2019-04-29T05:30:08.360Z,100719.20
2019-04-29T05:32:35.888Z,100719.34
2019-04-29T05:35:05.240Z,100719.34
2019-04-29T05:37:51.672Z,100721.11
2019-04-29T05:40:40.003Z,100720.02
2019-04-29T05:43:26.983Z,100720.02
2019-04-29T05:46:17.319Z,100734.31
2019-04-29T05:51:36.768Z,100742.34
2019-04-29T05:54:05.402Z,100739.30
2019-04-29T05:56:33.025Z,100739.30
2019-04-29T05:59:00.569Z,100740.74
2019-04-29T06:04:02.852Z,100741.77
2019-04-29T06:06:30.468Z,100746.27
2019-04-29T06:09:18.353Z,100742.01
2019-04-29T06:11:46.132Z,100752.47
2019-04-29T06:14:16.465Z,100752.47
2019-04-29T06:16:44.319Z,100753.30
2019-04-29T06:19:11.929Z,100754.57
2019-04-29T06:21:39.577Z,100748.91
2019-04-29T06:24:26.004Z,100752.37
2019-04-29T06:26:53.545Z,100754.73
2019-04-29T06:29:21.244Z,100754.73
2019-04-29T06:31:51.797Z,100741.55
2019-04-29T06:34:19.391Z,100740.02
2019-04-29T06:37:01.215Z,100746.23
2019-04-29T06:39:49.928Z,100746.23
2019-04-29T06:42:38.276Z,100741.59
2019-04-29T06:45:06.079Z,100739.88
2019-04-29T06:47:33.712Z,100748.59
2019-04-29T06:50:01.232Z,100751.58
2019-04-29T06:52:47.577Z,100752.36
2019-04-29T06:55:15.132Z,100752.36
2019-04-29T06:58:01.506Z,100749.05
2019-04-29T07:00:29.294Z,100749.05
2019-04-29T07:02:57.209Z,100750.94
2019-04-29T07:05:25.029Z,100749.00
2019-04-29T07:07:52.585Z,100760.60
2019-04-29T07:10:26.860Z,100749.84
2019-04-29T07:12:49.624Z,100759.06
2019-04-29T07:15:18.885Z,100759.06
2019-04-29T07:17:48.383Z,100755.36
2019-04-29T07:20:16.218Z,100755.36
2019-04-29T07:22:46.489Z,100757.59
2019-04-29T07:25:14.419Z,100747.86
2019-04-29T07:27:44.220Z,100747.86
2019-04-29T07:30:11.135Z,100739.62
2019-04-29T07:32:42.120Z,100742.86
2019-04-29T07:35:11.560Z,100742.86
2019-04-29T07:37:42.116Z,100736.22
2019-04-29T07:40:20.811Z,100735.91
2019-04-29T07:42:52.445Z,100740.36
2019-04-29T07:48:36.809Z,100745.22
2019-04-29T07:51:04.134Z,100742.69
2019-04-29T07:53:44.526Z,100738.62
2019-04-29T07:56:14.609Z,100739.95
2019-04-29T07:58:48.453Z,100738.14
2019-04-29T08:01:13.613Z,100732.67
2019-04-29T08:03:44.031Z,100732.67
2019-04-29T08:06:11.581Z,100731.95
2019-04-29T08:08:54.797Z,100731.95
2019-04-29T08:11:14.052Z,100730.57
2019-04-29T08:13:41.745Z,100726.58
2019-04-29T08:16:12.702Z,100721.70
2019-04-29T08:18:49.494Z,100721.70
2019-04-29T08:21:20.721Z,100720.87
2019-04-29T08:23:51.947Z,100720.14
2019-04-29T08:26:21.196Z,100719.81
2019-04-29T08:28:52.938Z,100719.81
2019-04-29T08:31:21.037Z,100727.33
2019-04-29T08:33:54.552Z,100727.33
2019-04-29T08:36:22.427Z,100727.58
2019-04-29T08:38:50.011Z,100729.00
2019-04-29T08:41:21.577Z,100729.00
2019-04-29T08:44:16.161Z,100727.89
2019-04-29T08:46:53.583Z,100724.21
2019-04-29T08:49:23.170Z,100715.23
2019-04-29T08:51:50.731Z,100715.42
2019-04-29T08:54:20.007Z,100713.54
2019-04-29T08:57:02.490Z,100710.27
2019-04-29T08:59:20.696Z,100706.92
2019-04-29T09:01:46.565Z,100710.12
2019-04-29T09:04:14.368Z,100704.05
2019-04-29T09:06:44.182Z,100704.05
2019-04-29T09:09:28.101Z,100698.61
2019-04-29T09:11:43.614Z,100698.77
2019-04-29T09:14:13.008Z,100698.77
2019-04-29T09:16:40.708Z,100689.67
2019-04-29T09:19:10.820Z,100689.67
2019-04-29T09:21:40.261Z,100689.22
2019-04-29T09:24:07.895Z,100695.52
2019-04-29T09:26:49.006Z,100689.80
2019-04-29T09:29:35.081Z,100689.38
2019-04-29T09:32:04.029Z,100685.25
2019-04-29T09:34:31.694Z,100688.09
2019-04-29T09:36:59.651Z,100688.09
2019-04-29T09:39:27.635Z,100684.16
2019-04-29T09:42:08.055Z,100694.85
2019-04-29T09:44:51.962Z,100682.13
2019-04-29T09:47:19.779Z,100678.29
2019-04-29T09:49:47.428Z,100679.20
2019-04-29T09:52:15.268Z,100678.71
2019-04-29T09:54:42.835Z,100675.48
2019-04-29T09:57:10.693Z,100667.97
2019-04-29T09:59:46.634Z,100667.97
2019-04-29T10:02:34.723Z,100663.31
2019-04-29T10:05:17.599Z,100662.67
2019-04-29T10:07:55.236Z,100658.70
2019-04-29T10:10:24.064Z,100660.65
2019-04-29T10:12:53.940Z,100662.34
2019-04-29T10:15:26.186Z,100667.06
2019-04-29T10:18:25.034Z,100667.06
2019-04-29T10:20:59.675Z,100672.79
2019-04-29T10:23:29.884Z,100668.98
2019-04-29T10:26:04.584Z,100664.17
2019-04-29T10:28:33.746Z,100660.98
2019-04-29T10:31:01.334Z,100665.42
2019-04-29T10:33:29.202Z,100665.42
2019-04-29T10:35:57.084Z,100656.30
2019-04-29T10:38:24.634Z,100654.28
2019-04-29T10:41:23.191Z,100654.28
2019-04-29T10:44:11.901Z,100651.06
2019-04-29T10:46:56.953Z,100651.06
2019-04-29T10:49:39.259Z,100653.09
2019-04-29T10:52:07.161Z,100653.09
2019-04-29T10:54:34.737Z,100649.63
2019-04-29T10:57:02.431Z,100649.63
2019-04-29T10:59:36.071Z,100650.48
2019-04-29T11:02:23.548Z,100651.31
2019-04-29T11:04:52.985Z,100627.98
2019-04-29T11:07:26.669Z,100627.98
2019-04-29T11:09:58.893Z,100622.12
2019-04-29T11:12:28.716Z,100632.16
2019-04-29T11:14:56.465Z,100616.05
2019-04-29T11:17:25.770Z,100616.05
2019-04-29T11:19:54.000Z,100618.13
2019-04-29T11:22:23.566Z,100618.13
2019-04-29T11:25:25.478Z,100617.75
2019-04-29T11:27:57.788Z,100619.37
2019-04-29T11:30:27.144Z,100613.48
2019-04-29T11:33:07.910Z,100615.04
2019-04-29T11:35:46.648Z,100614.02
2019-04-29T11:38:16.944Z,100605.37
2019-04-29T11:40:46.494Z,100602.06
2019-04-29T11:43:18.243Z,100602.06
2019-04-29T11:45:48.906Z,100592.58
2019-04-29T11:48:16.508Z,100599.81
2019-04-29T11:50:54.740Z,100592.45
2019-04-29T11:53:19.910Z,100597.40
2019-04-29T11:55:52.594Z,100596.26
2019-04-29T11:58:45.925Z,100593.63
2019-04-29T12:01:38.365Z,100589.66
2019-04-29T12:04:02.970Z,100593.50
2019-04-29T12:06:32.815Z,100586.98
2019-04-29T12:09:00.148Z,100585.47
2019-04-29T12:11:35.854Z,100586.42
2019-04-29T12:14:15.929Z,100573.03
2019-04-29T12:16:47.971Z,100573.97
2019-04-29T12:19:21.359Z,100563.48
2019-04-29T12:21:48.693Z,100562.08
2019-04-29T12:24:16.866Z,100550.85
2019-04-29T12:26:44.596Z,100554.53
2019-04-29T12:29:13.620Z,100554.53
2019-04-29T12:32:09.584Z,100545.92
2019-04-29T12:35:01.839Z,100553.17
2019-04-29T12:37:50.332Z,100549.95
2019-04-29T12:40:55.171Z,100545.07
2019-04-29T12:43:59.203Z,100547.25
2019-04-29T12:46:45.337Z,100548.11
2019-04-29T12:49:16.505Z,100541.13
2019-04-29T12:51:50.114Z,100523.05
2019-04-29T12:54:21.043Z,100521.94
2019-04-29T12:56:49.502Z,100523.78
2019-04-29T12:59:17.168Z,100527.44
2019-04-29T13:02:02.273Z,100526.23
2019-04-29T13:04:49.937Z,100526.52
2019-04-29T13:07:38.709Z,100526.52
2019-04-29T13:10:30.575Z,100521.19
2019-04-29T13:12:58.428Z,100523.80
2019-04-29T13:15:47.888Z,100520.26
2019-04-29T13:18:23.776Z,100522.87
2019-04-29T13:20:53.709Z,100529.00
2019-04-29T13:23:33.313Z,100517.47
2019-04-29T13:25:50.892Z,100515.77
2019-04-29T13:28:30.439Z,100515.77
2019-04-29T13:30:56.831Z,100507.95
2019-04-29T13:33:25.506Z,100507.95
2019-04-29T13:35:57.267Z,100506.39
2019-04-29T13:38:27.190Z,100505.13
2019-04-29T13:41:12.010Z,100502.28
2019-04-29T13:43:27.414Z,100502.28
2019-04-29T13:46:06.757Z,100493.61
2019-04-29T13:48:56.034Z,100492.31
2019-04-29T13:51:35.221Z,100492.31
2019-04-29T13:53:59.777Z,100491.93
2019-04-29T13:56:39.380Z,100491.93
2019-04-29T13:58:59.731Z,100496.15
2019-04-29T14:02:00.077Z,100492.16
2019-04-29T14:04:29.830Z,100489.80
2019-04-29T14:07:03.774Z,100488.09
2019-04-29T14:09:35.174Z,100493.55
2019-04-29T14:12:41.993Z,100493.61
2019-04-29T14:14:34.683Z,100493.61
2019-04-29T14:17:24.265Z,100488.84
2019-04-29T14:19:43.246Z,100479.36
2019-04-29T14:22:21.361Z,100482.52
2019-04-29T14:24:38.260Z,100476.94
2019-04-29T14:27:06.096Z,100476.94
2019-04-29T14:29:38.179Z,100476.64
2019-04-29T14:32:06.244Z,100477.47
2019-04-29T14:34:49.743Z,100475.59
2019-04-29T14:37:25.030Z,100472.38
2019-04-29T14:39:52.432Z,100472.38
2019-04-29T14:42:30.247Z,100469.88
2019-04-29T14:45:14.746Z,100477.54
2019-04-29T14:47:47.531Z,100477.54
2019-04-29T14:50:19.964Z,100471.11
2019-04-29T14:52:48.861Z,100463.19
2019-04-29T14:55:20.053Z,100478.30
2019-04-29T14:57:46.210Z,100478.30
2019-04-29T15:00:25.106Z,100481.84
2019-04-29T15:02:55.870Z,100476.91
2019-04-29T15:05:23.194Z,100476.91
2019-04-29T15:07:54.328Z,100476.82
2019-04-29T15:10:22.317Z,100476.82
2019-04-29T15:13:19.585Z,100476.53
2019-04-29T15:16:04.368Z,100488.42
2019-04-29T15:18:50.025Z,100484.34
2019-04-29T15:21:32.361Z,100482.79
2019-04-29T15:23:55.048Z,100491.99
2019-04-29T15:26:24.356Z,100488.22
2019-04-29T15:28:52.043Z,100495.70
2019-04-29T15:31:19.940Z,100495.70
2019-04-29T15:33:47.836Z,100487.63
2019-04-29T15:36:15.446Z,100485.78
2019-04-29T15:38:43.293Z,100485.78
2019-04-29T15:41:11.384Z,100489.88
2019-04-29T15:43:47.460Z,100501.52
2019-04-29T15:46:11.506Z,100497.08
2019-04-29T15:48:37.808Z,100489.16
2019-04-29T15:51:09.096Z,100493.03
2019-04-29T15:53:37.804Z,100490.41
2019-04-29T15:56:27.054Z,100493.73
2019-04-29T15:58:42.822Z,100493.73
2019-04-29T16:01:16.921Z,100489.83
2019-04-29T16:03:40.150Z,100501.86
2019-04-29T16:06:26.901Z,100501.86
2019-04-29T16:09:01.779Z,100509.45
2019-04-29T16:11:50.832Z,100503.91
2019-04-29T16:14:23.234Z,100506.30
2019-04-29T16:16:53.146Z,100498.20
2019-04-29T16:19:37.221Z,100500.88
2019-04-29T16:21:52.660Z,100500.88
2019-04-29T16:24:37.621Z,100509.23
2019-04-29T16:26:53.726Z,100519.77
2019-04-29T16:29:21.821Z,100514.19
2019-04-29T16:31:55.042Z,100514.19
2019-04-29T16:34:21.173Z,100511.95
2019-04-29T16:36:49.777Z,100511.95
2019-04-29T16:39:18.245Z,100516.23
2019-04-29T16:42:03.330Z,100518.59
2019-04-29T16:47:00.574Z,100513.39
2019-04-29T16:49:29.642Z,100511.94
2019-04-29T16:51:57.535Z,100510.63
2019-04-29T16:54:28.661Z,100512.71
2019-04-29T16:56:56.507Z,100515.66
2019-04-29T16:59:24.171Z,100516.04
2019-04-29T17:01:54.207Z,100514.46
2019-04-29T17:04:21.846Z,100514.46
2019-04-29T17:07:11.120Z,100509.58
2019-04-29T17:09:53.033Z,100509.38
2019-04-29T17:12:20.729Z,100501.94
2019-04-29T17:15:04.045Z,100501.94
2019-04-29T17:17:29.046Z,100509.13
2019-04-29T17:19:55.199Z,100507.23
2019-04-29T17:22:27.318Z,100507.23
2019-04-29T17:24:57.838Z,100507.34
2019-04-29T17:27:45.364Z,100512.34
2019-04-29T17:30:30.773Z,100505.17
2019-04-29T17:33:18.909Z,100513.31
2019-04-29T17:35:14.348Z,100514.34
2019-04-29T17:35:47.902Z,100509.45
2019-04-29T17:38:15.602Z,100513.69
2019-04-29T17:40:50.886Z,100513.69
2019-04-29T17:43:29.295Z,100511.28
2019-04-29T17:46:10.239Z,100511.15
2019-04-29T17:49:08.740Z,100517.48
2019-04-29T17:51:38.490Z,100513.73
2019-04-29T17:54:07.770Z,100512.88
2019-04-29T17:56:49.796Z,100512.88
2019-04-29T17:59:40.730Z,100514.48
2019-04-29T18:02:25.818Z,100517.38
2019-04-29T18:05:26.927Z,100524.18
2019-04-29T18:08:01.891Z,100517.64
2019-04-29T18:10:34.803Z,100528.56
2019-04-29T18:13:06.561Z,100524.70
2019-04-29T18:15:47.479Z,100529.69
2019-04-29T18:18:08.760Z,100534.91
2019-04-29T18:20:44.850Z,100534.91
2019-04-29T18:23:34.478Z,100533.09
2019-04-29T18:26:09.309Z,100533.09
2019-04-29T18:28:37.448Z,100540.25
2019-04-29T18:31:06.771Z,100541.70
2019-04-29T18:33:58.074Z,100540.95
2019-04-29T18:36:28.308Z,100540.95
2019-04-29T18:38:57.934Z,100542.77
2019-04-29T18:41:32.729Z,100547.86
2019-04-29T18:44:04.867Z,100547.86
2019-04-29T18:46:35.047Z,100553.94
2019-04-29T18:49:03.168Z,100549.82
2019-04-29T18:51:31.542Z,100549.82
2019-04-29T18:53:59.086Z,100557.48
2019-04-29T18:56:32.258Z,100557.34
2019-04-29T18:58:58.897Z,100558.31
2019-04-29T19:01:28.965Z,100562.69
2019-04-29T19:04:10.139Z,100562.33
2019-04-29T19:06:36.682Z,100563.41
2019-04-29T19:09:17.766Z,100563.41
2019-04-29T19:11:40.465Z,100565.72
2019-04-29T19:14:15.431Z,100566.34
2019-04-29T19:16:52.669Z,100570.92
2019-04-29T19:19:18.872Z,100571.17
2019-04-29T19:21:47.491Z,100576.02
2019-04-29T19:24:16.224Z,100571.28
2019-04-29T19:26:44.869Z,100571.28
2019-04-29T19:29:12.675Z,100570.45
2019-04-29T19:31:59.025Z,100573.95
2019-04-29T19:37:18.611Z,100580.27
2019-04-29T19:40:06.694Z,100580.27
2019-04-29T19:43:06.095Z,100582.32
2019-04-29T19:45:22.298Z,100583.77
2019-04-29T19:48:08.732Z,100584.59
2019-04-29T19:50:36.356Z,100584.59
2019-04-29T19:53:42.810Z,100581.70
2019-04-29T19:56:12.650Z,100589.71
2019-04-29T19:59:10.598Z,100581.08
2019-04-29T20:01:51.855Z,100584.22
2019-04-29T20:04:37.206Z,100581.80
2019-04-29T20:07:42.159Z,100579.23
2019-04-29T20:10:14.258Z,100579.48
2019-04-29T20:13:01.344Z,100587.59
2019-04-29T20:15:49.210Z,100590.73
2019-04-29T20:18:40.455Z,100594.88
2019-04-29T20:24:02.218Z,100595.81
2019-04-29T20:26:31.797Z,100595.81
2019-04-29T20:28:59.692Z,100593.39
2019-04-29T20:31:27.377Z,100599.55
2019-04-29T20:33:59.136Z,100599.55
2019-04-29T20:36:38.394Z,100600.05
2019-04-29T20:38:56.651Z,100598.09
2019-04-29T20:44:12.348Z,100598.20
2019-04-29T20:46:51.727Z,100598.20
2019-04-29T20:49:16.107Z,100595.53
2019-04-29T20:51:49.763Z,100596.50
2019-04-29T20:54:20.935Z,100590.91
2019-04-29T20:56:48.557Z,100595.02
2019-04-29T20:59:18.165Z,100595.02
2019-04-29T21:01:49.241Z,100593.09
2019-04-29T21:04:31.259Z,100594.78
2019-04-29T21:06:59.162Z,100589.81
2019-04-29T21:09:16.846Z,100589.81
2019-04-29T21:12:03.371Z,100589.91
2019-04-29T21:14:49.771Z,100589.91
2019-04-29T21:20:26.241Z,100587.08
2019-04-29T21:22:59.347Z,100587.08
2019-04-29T21:28:02.263Z,100586.59
2019-04-29T21:33:21.489Z,100577.33
2019-04-29T21:36:32.251Z,100580.97
2019-04-29T21:39:01.784Z,100580.97
2019-04-29T21:47:41.681Z,100574.61
2019-04-29T21:50:18.310Z,100574.61
2019-04-29T21:55:37.353Z,100576.99
2019-04-29T22:03:31.115Z,100587.23
2019-04-29T22:09:01.067Z,100588.11
2019-04-29T22:11:25.741Z,100584.73
2019-04-29T22:14:15.231Z,100585.30
2019-04-29T22:16:47.643Z,100591.00
2019-04-29T22:19:12.632Z,100591.00
2019-04-29T22:22:01.472Z,100591.00
2019-04-29T22:24:28.489Z,100593.56
2019-04-29T22:27:16.184Z,100587.40
2019-04-29T22:29:52.381Z,100587.40
2019-04-29T22:32:23.124Z,100586.53
2019-04-29T22:35:09.573Z,100586.27
2019-04-29T22:37:38.333Z,100586.27
2019-04-29T22:40:06.684Z,100582.87
2019-04-29T22:42:53.103Z,100583.34
2019-04-29T22:51:05.681Z,100576.18
2019-04-29T22:53:33.294Z,100582.34
2019-04-29T22:56:01.057Z,100580.18
2019-04-29T22:58:28.731Z,100580.18
2019-04-29T23:00:56.592Z,100588.55
2019-04-29T23:03:42.984Z,100577.88
2019-04-29T23:06:10.657Z,100577.88
2019-04-29T23:08:38.412Z,100578.50
2019-04-29T23:11:06.080Z,100578.50
2019-04-29T23:13:35.795Z,100574.01
2019-04-29T23:16:21.803Z,100570.00
2019-04-29T23:19:09.855Z,100577.91
2019-04-29T23:22:15.383Z,100577.91
2019-04-29T23:24:51.457Z,100575.23
2019-04-29T23:29:53.708Z,100570.50
2019-04-29T23:34:54.981Z,100565.38
2019-04-29T23:37:27.188Z,100561.98
2019-04-29T23:39:53.120Z,100558.34
2019-04-29T23:42:39.513Z,100563.47
2019-04-29T23:45:07.147Z,100563.47
2019-04-29T23:47:55.413Z,100560.30
2019-04-29T23:50:22.719Z,100559.84
2019-04-29T23:55:28.089Z,100558.14
